Time;durP1;ratioP1;P1;durP2;ratioP2;P2;SDS_P1;SDS_P2;PMS_P1;PMS_P2;Temp;Humidity;BMP_temperature;BMP_pressure;BME280_temperature;BME280_humidity;BME280_pressure;Samples;Min_cycle;Max_cycle;Signal;HPM_P1;HPM_P2
2022/02/10 00:04:42;;;;;;;;;;;1.70;81.20;;;;;;5024281;28;86873;-42
2022/02/10 00:20:30;;;;;;;;;;;1.70;81.10;;;;;;5023414;28;86940;-44
2022/02/10 00:26:12;;;;;;;;;;;1.70;81.10;;;;;;5028851;28;86426;-44
2022/02/10 00:36:36;;;;;;;;;;;1.70;80.90;;;;;;5024620;28;87247;-43
2022/02/10 00:39:18;;;;;;;;;;;1.70;81.00;;;;;;5025435;28;86943;-43
2022/02/10 00:41:43;;;;;;;;;;;1.70;80.90;;;;;;5025312;28;88779;-43
2022/02/10 00:44:09;;;;;;;;;;;1.70;80.90;;;;;;5023911;28;90262;-43
2022/02/10 00:46:34;;;;;;;;;;;1.70;80.90;;;;;;5024996;28;87199;-44
2022/02/10 00:49:00;;;;;;;;;;;1.70;80.90;;;;;;5027229;28;89189;-43
2022/02/10 00:51:25;;;;;;;;;;;1.70;80.90;;;;;;5025236;28;86373;-45
2022/02/10 00:53:52;;;;;;;;;;;1.70;80.90;;;;;;5024840;28;87898;-44
2022/02/10 00:56:17;;;;;;;;;;;1.70;80.80;;;;;;5024504;28;89488;-44
2022/02/10 00:58:46;;;;;;;;;;;1.70;80.80;;;;;;5024205;28;88082;-44
2022/02/10 01:07:04;;;;;;;;;;;1.70;80.80;;;;;;5022997;28;86935;-43
2022/02/10 01:31:37;;;;;;;;;;;1.60;80.40;;;;;;5022480;28;86828;-44
2022/02/10 01:34:02;;;;;;;;;;;1.60;80.50;;;;;;5026693;28;89413;-44
2022/02/10 01:36:28;;;;;;;;;;;1.70;80.50;;;;;;5024200;28;89333;-43
2022/02/10 01:38:53;;;;;;;;;;;1.60;80.40;;;;;;5023729;28;89945;-44
2022/02/10 01:57:51;;;;;;;;;;;1.60;80.30;;;;;;5026383;28;86977;-44
2022/02/10 02:03:22;;;;;;;;;;;1.60;80.30;;;;;;5024123;28;86847;-43
2022/02/10 02:05:52;;;;;;;;;;;1.60;80.50;;;;;;5023990;28;88985;-43
2022/02/10 02:08:23;;;;;;;;;;;1.60;80.50;;;;;;5023438;28;89531;-43
2022/02/10 02:10:49;;;;;;;;;;;1.60;80.50;;;;;;5024360;28;86322;-43
2022/02/10 02:13:14;;;;;;;;;;;1.60;80.50;;;;;;5023634;28;88484;-44
2022/02/10 02:15:40;;;;;;;;;;;1.60;80.30;;;;;;5023220;28;89626;-44
2022/02/10 02:18:05;;;;;;;;;;;1.60;80.50;;;;;;5022788;28;87903;-43
2022/02/10 02:20:31;;;;;;;;;;;1.60;80.60;;;;;;5026053;28;89926;-44
2022/02/10 02:22:56;;;;;;;;;;;1.60;80.60;;;;;;5023485;28;87279;-43
2022/02/10 02:25:22;;;;;;;;;;;1.60;80.60;;;;;;5023305;28;88883;-43
2022/02/10 02:27:50;;;;;;;;;;;1.50;80.70;;;;;;5023176;28;89103;-44
2022/02/10 02:30:19;;;;;;;;;;;1.50;80.70;;;;;;5023614;28;87165;-44
2022/02/10 02:33:03;;;;;;;;;;;1.50;80.60;;;;;;5023382;28;88798;-44
2022/02/10 02:35:54;;;;;;;;;;;1.50;80.80;;;;;;5023500;28;87680;-43
2022/02/10 03:05:37;;;;;;;;;;;1.40;80.90;;;;;;5020563;28;87203;-44
2022/02/10 03:08:12;;;;;;;;;;;1.40;80.60;;;;;;5025944;28;86955;-44
2022/02/10 03:13:16;;;;;;;;;;;1.40;80.70;;;;;;5022739;28;87076;-43
2022/02/10 03:18:35;;;;;;;;;;;1.40;80.90;;;;;;5020681;28;87241;-44
2022/02/10 03:21:21;;;;;;;;;;;1.40;80.90;;;;;;5022781;28;87095;-43
2022/02/10 04:15:20;;;;;;;;;;;1.20;81.10;;;;;;5024311;28;86861;-43
2022/02/10 04:39:43;;;;;;;;;;;1.10;81.00;;;;;;5024453;28;87323;-43
2022/02/10 05:16:17;;;;;;;;;;;1.20;80.00;;;;;;5023899;28;86095;-43
2022/02/10 05:19:17;;;;;;;;;;;1.20;80.00;;;;;;5023860;28;87197;-44
2022/02/10 05:34:53;;;;;;;;;;;1.30;79.80;;;;;;5023209;28;87195;-43
2022/02/10 05:37:22;;;;;;;;;;;1.20;79.80;;;;;;5024174;28;86759;-44
2022/02/10 05:39:50;;;;;;;;;;;1.20;79.60;;;;;;5024105;28;89077;-44
2022/02/10 05:45:23;;;;;;;;;;;1.20;79.70;;;;;;5022911;28;87026;-43
2022/02/10 05:48:39;;;;;;;;;;;1.20;79.70;;;;;;5023991;28;88819;-43
2022/02/10 07:07:00;;;;;;;;;;;1.20;79.20;;;;;;5023344;28;86924;-43
2022/02/10 07:14:43;;;;;;;;;;;1.10;79.00;;;;;;5022904;28;88616;-42
2022/02/10 07:56:04;;;;;;;;;;;1.00;79.60;;;;;;5024938;28;86914;-42
2022/02/10 08:57:36;;;;;;;;;;;1.00;80.50;;;;;;5023655;28;87362;-44
2022/02/10 09:05:56;;;;;;;;;;;1.00;80.50;;;;;;5024782;28;86757;-46
2022/02/10 09:26:43;;;;;;;;;;;1.10;80.60;;;;;;5023181;28;86731;-43
2022/02/10 10:02:38;;;;;;;;;;;1.30;80.50;;;;;;5023149;28;87488;-43
2022/02/10 10:05:16;;;;;;;;;;;1.30;80.40;;;;;;5023431;28;89565;-43
2022/02/10 10:18:39;;;;;;;;;;;1.30;80.60;;;;;;5023359;28;88034;-43
2022/02/10 10:21:05;;;;;;;;;;;1.40;80.60;;;;;;5022055;28;88114;-45
2022/02/10 10:51:18;;;;;;;;;;;1.50;80.70;;;;;;5023461;28;86970;-43
2022/02/10 11:36:44;;;;;;;;;;;1.80;82.20;;;;;;5024907;28;86790;-43
2022/02/10 11:45:29;;;;;;;;;;;1.90;82.00;;;;;;5025841;28;88117;-45
2022/02/10 12:34:12;;;;;;;;;;;2.40;82.20;;;;;;5024017;28;87934;-46
2022/02/10 13:28:54;;;;;;;;;;;2.90;81.70;;;;;;5027663;28;87028;-43
2022/02/10 14:16:42;;;;;;;;;;;3.30;82.30;;;;;;5026384;28;88107;-44
2022/02/10 14:19:15;;;;;;;;;;;3.30;82.50;;;;;;5024341;28;89280;-44
2022/02/10 14:22:01;;;;;;;;;;;3.30;82.70;;;;;;5023311;28;89889;-44
2022/02/10 14:27:10;;;;;;;;;;;3.40;82.70;;;;;;5023316;28;87874;-43
2022/02/10 14:29:39;;;;;;;;;;;3.40;82.70;;;;;;5023010;28;88690;-44
2022/02/10 14:32:06;;;;;;;;;;;3.40;82.50;;;;;;5023419;28;87129;-44
2022/02/10 14:34:32;;;;;;;;;;;3.50;82.70;;;;;;5023426;28;88712;-43
2022/02/10 15:16:27;;;;;;;;;;;3.80;83.60;;;;;;5022961;28;87080;-43
2022/02/10 16:16:53;;;;;;;;;;;4.30;82.40;;;;;;5024261;28;87244;-43
2022/02/10 16:19:19;;;;;;;;;;;4.30;82.40;;;;;;5025432;28;87068;-45
2022/02/10 16:21:57;;;;;;;;;;;4.30;82.20;;;;;;5025487;28;89421;-43
2022/02/10 16:24:30;;;;;;;;;;;4.30;82.10;;;;;;5025267;28;88673;-44
2022/02/10 16:26:58;;;;;;;;;;;4.30;82.20;;;;;;5025414;28;86965;-44
2022/02/10 16:29:25;;;;;;;;;;;4.40;82.10;;;;;;5025354;28;87718;-44
2022/02/10 16:31:51;;;;;;;;;;;4.30;82.00;;;;;;5025140;28;88784;-44
2022/02/10 16:34:16;;;;;;;;;;;4.40;82.00;;;;;;5025089;28;86982;-46
2022/02/10 16:36:42;;;;;;;;;;;4.40;82.00;;;;;;5027833;28;89014;-44
2022/02/10 16:39:08;;;;;;;;;;;4.40;81.90;;;;;;5024461;28;88114;-45
2022/02/10 16:41:33;;;;;;;;;;;4.40;81.70;;;;;;5025160;28;89709;-47
2022/02/10 16:43:59;;;;;;;;;;;4.40;82.20;;;;;;5024116;28;89383;-46
2022/02/10 16:46:24;;;;;;;;;;;4.40;81.60;;;;;;5025043;28;87105;-45
2022/02/10 16:48:50;;;;;;;;;;;4.40;81.60;;;;;;5024895;28;89145;-43
2022/02/10 16:51:17;;;;;;;;;;;4.40;81.60;;;;;;5024585;28;89244;-43
2022/02/10 16:53:48;;;;;;;;;;;4.40;81.60;;;;;;5024873;28;87115;-44
2022/02/10 16:56:19;;;;;;;;;;;4.40;81.60;;;;;;5025377;28;89345;-46
2022/02/10 16:59:03;;;;;;;;;;;4.50;81.70;;;;;;5027363;28;89822;-44
2022/02/10 17:27:37;;;;;;;;;;;4.50;81.00;;;;;;5023370;28;87054;-46
2022/02/10 17:53:52;;;;;;;;;;;4.60;80.50;;;;;;5023661;28;89069;-45
2022/02/10 17:56:18;;;;;;;;;;;4.60;80.50;;;;;;5023344;28;88027;-44
2022/02/10 17:58:44;;;;;;;;;;;4.60;80.30;;;;;;5023788;28;89707;-43
2022/02/10 18:01:10;;;;;;;;;;;4.60;80.30;;;;;;5023526;28;89345;-44
2022/02/10 18:03:35;;;;;;;;;;;4.60;80.10;;;;;;5023746;28;86960;-44
2022/02/10 18:06:17;;;;;;;;;;;4.60;80.50;;;;;;5025477;28;88688;-43
2022/02/10 18:14:22;;;;;;;;;;;4.60;81.00;;;;;;5024187;28;86424;-44
2022/02/10 18:16:59;;;;;;;;;;;4.60;80.90;;;;;;5023903;28;86963;-45
2022/02/10 18:19:29;;;;;;;;;;;4.60;80.70;;;;;;5023793;28;88803;-43
2022/02/10 18:22:25;;;;;;;;;;;4.60;80.60;;;;;;5022642;28;91782;-46
2022/02/10 18:24:52;;;;;;;;;;;4.60;80.50;;;;;;5022858;28;87221;-47
2022/02/10 18:27:26;;;;;;;;;;;4.70;80.60;;;;;;5023611;28;88904;-46
2022/02/10 18:33:21;;;;;;;;;;;4.60;80.30;;;;;;5026286;28;89274;-46
2022/02/10 18:54:31;;;;;;;;;;;4.70;80.20;;;;;;5021539;28;86935;-44
2022/02/10 19:08:21;;;;;;;;;;;4.70;80.90;;;;;;5023922;28;86242;-47
2022/02/10 19:10:49;;;;;;;;;;;4.70;80.80;;;;;;5023074;28;88134;-47
2022/02/10 19:13:17;;;;;;;;;;;4.70;80.60;;;;;;5022413;28;89755;-46
2022/02/10 19:15:43;;;;;;;;;;;4.70;80.40;;;;;;5021141;28;87733;-45
2022/02/10 19:18:09;;;;;;;;;;;4.70;80.30;;;;;;5028297;28;89822;-47
2022/02/10 19:20:35;;;;;;;;;;;4.70;80.30;;;;;;5026329;28;87119;-46
2022/02/10 19:23:05;;;;;;;;;;;4.70;80.20;;;;;;5026356;28;89105;-45
2022/02/10 19:25:31;;;;;;;;;;;4.70;80.20;;;;;;5025712;28;89436;-44
2022/02/10 19:27:57;;;;;;;;;;;4.70;80.30;;;;;;5026168;28;87161;-47
2022/02/10 19:30:24;;;;;;;;;;;4.70;80.60;;;;;;5026572;28;87833;-45
2022/02/10 19:32:57;;;;;;;;;;;4.70;80.60;;;;;;5026354;28;88716;-46
2022/02/10 19:35:23;;;;;;;;;;;4.70;80.50;;;;;;5026126;28;86961;-46
2022/02/10 19:37:54;;;;;;;;;;;4.70;80.50;;;;;;5028617;28;88707;-45
2022/02/10 19:40:20;;;;;;;;;;;4.70;80.30;;;;;;5025708;28;87999;-46
2022/02/10 19:42:47;;;;;;;;;;;4.70;80.10;;;;;;5025854;28;89501;-46
2022/02/10 19:45:13;;;;;;;;;;;4.70;80.60;;;;;;5025874;28;89163;-44
2022/02/10 19:47:40;;;;;;;;;;;4.70;79.90;;;;;;5026067;28;87118;-46
2022/02/10 19:50:11;;;;;;;;;;;4.70;79.90;;;;;;5025893;28;88099;-46
2022/02/10 19:52:39;;;;;;;;;;;4.70;79.80;;;;;;5025461;28;89337;-44
2022/02/10 19:55:07;;;;;;;;;;;4.70;79.70;;;;;;5026026;28;87047;-46
2022/02/10 19:57:36;;;;;;;;;;;4.70;79.70;;;;;;5026270;28;88940;-46
2022/02/10 20:00:07;;;;;;;;;;;4.70;79.70;;;;;;5028320;28;89391;-45
2022/02/10 20:02:33;;;;;;;;;;;4.70;79.60;;;;;;5025786;28;89190;-46
2022/02/10 20:04:58;;;;;;;;;;;4.70;79.50;;;;;;5024634;28;90467;-44
2022/02/10 20:07:24;;;;;;;;;;;4.70;79.60;;;;;;5025677;28;87112;-44
2022/02/10 20:09:51;;;;;;;;;;;4.70;79.40;;;;;;5025555;28;89059;-46
2022/02/10 20:12:16;;;;;;;;;;;4.70;79.40;;;;;;5025364;28;89512;-45
2022/02/10 20:14:42;;;;;;;;;;;4.70;79.40;;;;;;5025794;28;86720;-45
2022/02/10 20:17:07;;;;;;;;;;;4.70;79.40;;;;;;5025430;28;88768;-48
2022/02/10 20:19:33;;;;;;;;;;;4.70;79.40;;;;;;5025042;28;89296;-46
2022/02/10 20:21:59;;;;;;;;;;;4.70;79.40;;;;;;5028625;28;86458;-48
2022/02/10 20:24:24;;;;;;;;;;;4.70;79.40;;;;;;5025286;28;89675;-47
2022/02/10 20:26:50;;;;;;;;;;;4.70;79.30;;;;;;5025283;28;87228;-49
2022/02/10 20:29:16;;;;;;;;;;;4.70;79.30;;;;;;5024254;28;88788;-44
2022/02/10 20:31:41;;;;;;;;;;;4.70;79.40;;;;;;5025033;28;89679;-48
2022/02/10 20:34:08;;;;;;;;;;;4.70;79.40;;;;;;5025249;28;87160;-47
2022/02/10 20:36:35;;;;;;;;;;;4.70;79.40;;;;;;5024978;28;88809;-46
2022/02/10 20:39:01;;;;;;;;;;;4.70;79.50;;;;;;5024701;28;89404;-46
2022/02/10 20:41:31;;;;;;;;;;;4.70;79.50;;;;;;5025028;28;87060;-46
2022/02/10 20:43:58;;;;;;;;;;;4.70;79.40;;;;;;5027375;28;89071;-44
2022/02/10 20:46:26;;;;;;;;;;;4.70;79.40;;;;;;5025531;28;86143;-46
2022/02/10 20:48:52;;;;;;;;;;;4.70;79.60;;;;;;5025084;28;88461;-46
2022/02/10 20:51:17;;;;;;;;;;;4.70;79.40;;;;;;5024596;28;89448;-45
2022/02/10 20:53:44;;;;;;;;;;;4.70;80.00;;;;;;5024350;28;88128;-44
2022/02/10 20:56:11;;;;;;;;;;;4.70;79.50;;;;;;5024813;28;89651;-45
2022/02/10 20:58:38;;;;;;;;;;;4.70;79.50;;;;;;5024743;28;89644;-44
2022/02/10 21:01:05;;;;;;;;;;;4.70;79.40;;;;;;5024709;28;87127;-46
2022/02/10 21:03:33;;;;;;;;;;;4.70;79.40;;;;;;5024787;28;88858;-46
2022/02/10 21:06:07;;;;;;;;;;;4.70;79.30;;;;;;5027321;28;89788;-46
2022/02/10 21:11:18;;;;;;;;;;;4.60;79.30;;;;;;5023832;28;86587;-44
2022/02/10 21:13:44;;;;;;;;;;;4.70;79.10;;;;;;5024606;28;87194;-44
2022/02/10 21:16:10;;;;;;;;;;;4.60;79.00;;;;;;5024681;28;89278;-44
2022/02/10 21:18:36;;;;;;;;;;;4.60;78.90;;;;;;5023545;28;90281;-45
2022/02/10 21:21:06;;;;;;;;;;;4.60;78.90;;;;;;5024645;28;87224;-44
2022/02/10 21:23:42;;;;;;;;;;;4.60;78.90;;;;;;5024421;28;88694;-46
2022/02/10 21:26:10;;;;;;;;;;;4.60;78.90;;;;;;5024106;28;89153;-45
2022/02/10 21:28:38;;;;;;;;;;;4.60;78.90;;;;;;5027330;28;87173;-46
2022/02/10 21:31:07;;;;;;;;;;;4.60;78.90;;;;;;5024042;28;89495;-45
2022/02/10 21:38:28;;;;;;;;;;;4.60;79.00;;;;;;5024158;28;88050;-46
2022/02/10 22:18:32;;;;;;;;;;;4.50;78.90;;;;;;5022513;28;86955;-44
2022/02/10 22:21:02;;;;;;;;;;;4.50;78.80;;;;;;5022898;28;88798;-44
2022/02/10 22:23:28;;;;;;;;;;;4.50;79.40;;;;;;5023673;28;87027;-44
2022/02/10 22:26:00;;;;;;;;;;;4.50;78.80;;;;;;5023765;28;88894;-46
2022/02/10 22:31:10;;;;;;;;;;;4.50;78.80;;;;;;5023596;28;87144;-45
2022/02/10 22:33:51;;;;;;;;;;;4.50;78.70;;;;;;5023243;28;88858;-46
2022/02/10 22:36:19;;;;;;;;;;;4.50;78.80;;;;;;5025610;28;90428;-46
2022/02/10 22:38:50;;;;;;;;;;;4.50;78.80;;;;;;5023551;28;89729;-44
2022/02/10 22:41:16;;;;;;;;;;;4.50;78.70;;;;;;5021815;28;91193;-43
2022/02/10 22:43:43;;;;;;;;;;;4.50;78.70;;;;;;5022874;28;87234;-45
2022/02/10 22:46:08;;;;;;;;;;;4.50;78.70;;;;;;5023044;28;88914;-46
2022/02/10 22:48:34;;;;;;;;;;;4.50;78.80;;;;;;5022866;28;88518;-46
2022/02/10 22:51:00;;;;;;;;;;;4.50;78.60;;;;;;5025803;28;87110;-46
2022/02/10 22:53:26;;;;;;;;;;;4.50;78.60;;;;;;5030350;28;88089;-45
2022/02/10 22:55:52;;;;;;;;;;;4.50;78.70;;;;;;5029452;28;88804;-46
2022/02/10 22:58:17;;;;;;;;;;;4.50;78.60;;;;;;5032733;28;86912;-46
2022/02/10 23:00:49;;;;;;;;;;;4.50;78.60;;;;;;5028865;28;90757;-44
2022/02/10 23:03:19;;;;;;;;;;;4.50;78.60;;;;;;5029981;28;86923;-44
2022/02/10 23:05:44;;;;;;;;;;;4.50;78.60;;;;;;5029737;28;87792;-44
2022/02/10 23:08:11;;;;;;;;;;;4.50;78.60;;;;;;5029379;28;89440;-43
2022/02/10 23:10:50;;;;;;;;;;;4.50;78.50;;;;;;5029786;28;87034;-44
2022/02/10 23:13:24;;;;;;;;;;;4.50;78.60;;;;;;5029461;28;87996;-43
2022/02/10 23:15:50;;;;;;;;;;;4.50;78.50;;;;;;5029270;28;89256;-43
2022/02/10 23:18:17;;;;;;;;;;;4.50;78.50;;;;;;5030020;28;86385;-45
2022/02/10 23:20:43;;;;;;;;;;;4.40;78.40;;;;;;5032075;28;88159;-46
2022/02/10 23:23:10;;;;;;;;;;;4.50;78.50;;;;;;5029613;28;87111;-44
2022/02/10 23:25:36;;;;;;;;;;;4.40;78.40;;;;;;5028959;28;89156;-43
2022/02/10 23:28:03;;;;;;;;;;;4.40;78.40;;;;;;5029067;28;89479;-44
2022/02/10 23:30:28;;;;;;;;;;;4.40;78.40;;;;;;5029291;28;87143;-46
2022/02/10 23:32:59;;;;;;;;;;;4.40;78.30;;;;;;5029624;28;87887;-44
2022/02/10 23:37:53;;;;;;;;;;;4.40;78.40;;;;;;5029422;28;87107;-44
2022/02/10 23:40:19;;;;;;;;;;;4.40;78.30;;;;;;5029274;28;88929;-44
2022/02/10 23:42:44;;;;;;;;;;;4.40;78.30;;;;;;5032189;28;87277;-46
2022/02/10 23:45:17;;;;;;;;;;;4.40;78.30;;;;;;5029438;28;88537;-44
2022/02/10 23:47:43;;;;;;;;;;;4.40;78.30;;;;;;5028888;28;89658;-46
2022/02/10 23:50:12;;;;;;;;;;;4.40;78.30;;;;;;5028484;28;87802;-46
2022/02/10 23:52:37;;;;;;;;;;;4.40;78.20;;;;;;5029157;28;88937;-47
2022/02/10 23:55:10;;;;;;;;;;;4.40;78.20;;;;;;5028502;28;89367;-47
2022/02/10 23:58:04;;;;;;;;;;;4.40;78.20;;;;;;5029351;28;86960;-45
